createdAt,value
2023-04-21T00:01:37.248Z,39.65
2023-04-21T00:06:41.645Z,34.75
2023-04-21T00:11:45.451Z,41.70
2023-04-21T00:16:52.591Z,37.08
2023-04-21T00:21:59.084Z,43.50
2023-04-21T00:27:03.740Z,38.00
2023-04-21T00:32:10.167Z,39.20
2023-04-21T00:37:13.806Z,47.25
2023-04-21T00:42:17.805Z,45.95
2023-04-21T00:47:23.124Z,34.78
2023-04-21T00:57:31.936Z,45.67
2023-04-21T01:02:39.184Z,40.03
2023-04-21T01:07:42.800Z,44.30
2023-04-21T01:12:49.218Z,42.40
2023-04-21T01:17:57.108Z,44.42
2023-04-21T01:23:02.224Z,43.58
2023-04-21T01:28:05.833Z,41.00
2023-04-21T01:33:09.099Z,48.28
2023-04-21T01:38:14.402Z,39.83
2023-04-21T01:43:20.002Z,53.93
2023-04-21T01:48:23.677Z,49.13
2023-04-21T01:53:28.432Z,44.78
2023-04-21T01:58:32.511Z,42.30
2023-04-21T02:03:37.465Z,46.83
2023-04-21T02:08:48.059Z,42.90
2023-04-21T02:13:51.510Z,41.53
2023-04-21T02:18:55.198Z,45.35
2023-04-21T02:24:00.133Z,38.10
2023-04-21T02:29:04.038Z,42.80
2023-04-21T02:34:07.296Z,47.63
2023-04-21T02:39:12.051Z,41.25
2023-04-21T02:44:15.347Z,36.73
2023-04-21T02:49:18.953Z,32.92
2023-04-21T02:54:23.847Z,37.45
2023-04-21T02:59:27.080Z,37.17
2023-04-21T03:04:32.422Z,36.95
2023-04-21T03:09:37.192Z,34.25
2023-04-21T03:14:40.463Z,41.30
2023-04-21T03:19:43.665Z,30.67
2023-04-21T03:24:49.550Z,32.22
2023-04-21T03:29:52.812Z,35.43
2023-04-21T03:34:56.084Z,33.03
2023-04-21T03:40:01.112Z,35.28
2023-04-21T03:45:05.179Z,32.28
2023-04-21T03:50:10.586Z,24.52
2023-04-21T03:55:15.204Z,30.60
2023-04-21T04:00:18.505Z,34.80
2023-04-21T04:05:22.157Z,37.72
2023-04-21T04:10:26.895Z,38.00
2023-04-21T04:15:30.200Z,33.37
2023-04-21T04:20:33.404Z,28.48
2023-04-21T04:25:39.290Z,32.97
2023-04-21T04:30:42.764Z,37.58
2023-04-21T04:35:47.648Z,30.08
2023-04-21T04:40:57.728Z,26.53
2023-04-21T04:46:01.879Z,35.65
2023-04-21T04:51:05.373Z,38.70
2023-04-21T04:56:10.455Z,39.85
2023-04-21T05:01:14.554Z,31.83
2023-04-21T05:06:18.095Z,25.45
2023-04-21T05:11:23.244Z,31.65
2023-04-21T05:16:26.591Z,27.03
2023-04-21T05:21:31.454Z,26.48
2023-04-21T05:26:36.219Z,26.08
2023-04-21T05:31:40.074Z,32.65
2023-04-21T05:36:43.589Z,29.80
2023-04-21T05:41:48.447Z,29.92
2023-04-21T05:46:51.720Z,26.30
2023-04-21T05:51:54.930Z,24.15
2023-04-21T05:56:59.872Z,30.52
2023-04-21T06:02:04.708Z,19.75
2023-04-21T06:07:09.779Z,27.03
2023-04-21T06:12:14.356Z,27.13
2023-04-21T06:17:19.122Z,25.45
2023-04-21T06:22:22.480Z,26.57
2023-04-21T06:27:27.141Z,31.65
2023-04-21T06:32:30.382Z,24.67
2023-04-21T06:37:33.910Z,29.05
2023-04-21T06:42:38.528Z,25.63
2023-04-21T06:47:41.825Z,20.40
2023-04-21T06:52:45.128Z,21.73
2023-04-21T06:57:49.753Z,24.73
2023-04-21T07:02:53.041Z,28.67
2023-04-21T07:07:59.813Z,22.98
2023-04-21T07:13:04.850Z,15.82
2023-04-21T07:18:08.549Z,24.77
2023-04-21T07:23:12.169Z,16.98
2023-04-21T07:28:17.270Z,20.30
2023-04-21T07:33:21.038Z,22.02
2023-04-21T07:38:24.973Z,19.67
2023-04-21T07:43:31.144Z,22.42
2023-04-21T07:48:34.612Z,20.63
2023-04-21T07:53:38.198Z,21.48
2023-04-21T07:58:43.232Z,17.33
2023-04-21T08:03:46.630Z,19.37
2023-04-21T08:08:50.291Z,20.67
2023-04-21T08:13:55.357Z,17.13
2023-04-21T08:18:58.769Z,21.88
2023-04-21T08:24:02.636Z,24.23
2023-04-21T08:29:11.047Z,19.30
2023-04-21T08:34:14.748Z,16.17
2023-04-21T08:39:18.778Z,17.60
2023-04-21T08:44:24.239Z,11.68
2023-04-21T08:49:32.101Z,20.55
2023-04-21T08:54:36.410Z,15.43
2023-04-21T08:59:41.077Z,10.95
2023-04-21T09:04:46.446Z,14.73
2023-04-21T09:10:10.585Z,15.05
2023-04-21T09:21:17.065Z,10.05
2023-04-21T09:26:23.376Z,13.77
2023-04-21T09:31:29.432Z,14.40
2023-04-21T09:36:34.719Z,14.13
2023-04-21T09:46:45.263Z,15.88
2023-04-21T09:52:16.921Z,19.83
2023-04-21T09:57:18.536Z,13.00
2023-04-21T10:02:22.745Z,17.20
2023-04-21T10:07:27.860Z,14.70
2023-04-21T10:12:31.845Z,6.25
2023-04-21T10:17:37.441Z,10.55
2023-04-21T10:22:44.724Z,7.43
2023-04-21T10:27:48.494Z,10.40
2023-04-21T10:33:04.096Z,14.88
2023-04-21T10:38:10.347Z,10.57
2023-04-21T10:43:45.309Z,13.63
2023-04-21T10:48:54.202Z,9.27
2023-04-21T10:53:59.663Z,7.32
2023-04-21T10:59:03.290Z,13.05
2023-04-21T11:04:07.235Z,8.98
2023-04-21T11:09:12.248Z,12.90
2023-04-21T11:14:19.368Z,10.82
2023-04-21T11:19:24.931Z,9.75
2023-04-21T11:24:30.057Z,10.32
2023-04-21T11:34:39.376Z,5.80
2023-04-21T11:39:44.949Z,8.25
2023-04-21T11:44:48.812Z,6.20
2023-04-21T11:49:55.526Z,8.05
2023-04-21T11:55:03.977Z,8.40
2023-04-21T12:00:11.055Z,11.18
2023-04-21T12:05:16.046Z,16.85
2023-04-21T12:15:25.657Z,12.20
2023-04-21T12:20:31.533Z,15.23
2023-04-21T12:25:36.774Z,5.25
2023-04-21T12:30:42.317Z,10.35
2023-04-21T12:35:46.417Z,8.68
2023-04-21T12:40:51.541Z,6.90
2023-04-21T12:45:55.604Z,6.40
2023-04-21T12:50:59.174Z,4.95
2023-04-21T12:56:05.396Z,9.65
2023-04-21T13:01:09.535Z,12.13
2023-04-21T13:06:13.704Z,8.48
2023-04-21T13:11:18.885Z,14.05
2023-04-21T13:16:22.586Z,4.50
2023-04-21T13:21:26.658Z,12.98
2023-04-21T13:26:33.921Z,6.53
2023-04-21T13:31:37.410Z,19.80
2023-04-21T13:36:41.340Z,7.47
2023-04-21T13:41:46.464Z,8.70
2023-04-21T13:46:52.634Z,11.05
2023-04-21T13:51:56.198Z,7.18
2023-04-21T13:57:01.595Z,8.48
2023-04-21T14:02:05.526Z,13.05
2023-04-21T14:07:09.508Z,9.27
2023-04-21T14:12:14.668Z,17.27
2023-04-21T14:17:18.229Z,4.90
2023-04-21T14:22:22.101Z,5.57
2023-04-21T14:27:27.053Z,6.13
2023-04-21T14:37:34.542Z,7.68
2023-04-21T14:42:39.581Z,11.18
2023-04-21T14:52:49.974Z,5.53
2023-04-21T14:57:55.101Z,10.35
2023-04-21T15:02:59.505Z,13.30
2023-04-21T15:08:03.553Z,11.65
2023-04-21T15:13:08.667Z,8.02
2023-04-21T15:23:16.016Z,11.13
2023-04-21T15:28:20.681Z,8.75
2023-04-21T15:33:24.315Z,12.75
2023-04-21T15:38:28.134Z,13.35
2023-04-21T15:43:33.158Z,14.25
2023-04-21T15:53:44.208Z,7.95
2023-04-21T15:58:49.141Z,9.07
2023-04-21T16:03:53.760Z,8.30
2023-04-21T16:08:57.544Z,7.90
2023-04-21T16:14:02.826Z,6.40
2023-04-21T16:19:06.766Z,11.63
2023-04-21T16:24:11.441Z,11.30
2023-04-21T16:29:16.705Z,8.93
2023-04-21T16:34:20.714Z,8.77
2023-04-21T16:39:24.648Z,10.75
2023-04-21T16:44:29.624Z,7.55
2023-04-21T16:49:33.261Z,10.57
2023-04-21T16:54:39.967Z,8.23
2023-04-21T16:59:45.194Z,7.78
2023-04-21T17:04:49.201Z,14.00
2023-04-21T17:09:53.298Z,16.27
2023-04-21T17:14:58.307Z,9.50
2023-04-21T17:20:02.033Z,11.55
2023-04-21T17:25:06.229Z,11.38
2023-04-21T17:30:11.606Z,9.37
2023-04-21T17:35:14.922Z,9.45
2023-04-21T17:40:18.919Z,9.73
2023-04-21T17:45:23.583Z,8.82
2023-04-21T17:50:27.741Z,9.27
2023-04-21T17:55:31.013Z,10.00
2023-04-21T18:00:35.747Z,8.85
2023-04-21T18:05:39.122Z,8.88
2023-04-21T18:10:42.730Z,8.85
2023-04-21T18:15:47.706Z,8.68
2023-04-21T18:20:51.443Z,12.73
2023-04-21T18:25:55.235Z,6.65
2023-04-21T18:31:00.807Z,15.07
2023-04-21T18:36:04.820Z,10.52
2023-04-21T18:41:08.589Z,8.32
2023-04-21T18:46:13.209Z,13.52
2023-04-21T18:51:16.850Z,10.80
2023-04-21T18:56:20.465Z,10.90
2023-04-21T19:01:25.677Z,8.60
2023-04-21T19:06:29.351Z,11.40
2023-04-21T19:11:33.470Z,11.30
2023-04-21T19:16:38.561Z,10.90
2023-04-21T19:21:41.830Z,13.77
2023-04-21T19:26:45.113Z,15.13
2023-04-21T19:31:49.726Z,8.85
2023-04-21T19:36:53.046Z,12.77
2023-04-21T19:41:57.608Z,12.80
2023-04-21T19:47:02.727Z,12.13
2023-04-21T19:52:06.032Z,11.67
2023-04-21T19:57:11.910Z,11.27
2023-04-21T20:02:17.151Z,12.15
2023-04-21T20:07:21.048Z,10.55
2023-04-21T20:12:24.469Z,13.07
2023-04-21T20:17:29.463Z,12.63
2023-04-21T20:22:32.753Z,13.05
2023-04-21T20:27:36.056Z,13.15
2023-04-21T20:32:40.693Z,14.95
2023-04-21T20:37:44.432Z,14.77
2023-04-21T20:42:48.658Z,14.98
2023-04-21T20:47:53.292Z,15.27
2023-04-21T20:52:56.760Z,18.77
2023-04-21T20:57:59.970Z,14.00
2023-04-21T21:03:09.951Z,16.98
2023-04-21T21:08:13.776Z,14.57
2023-04-21T21:13:17.371Z,16.35
2023-04-21T21:18:22.473Z,13.32
2023-04-21T21:23:26.251Z,19.80
2023-04-21T21:28:30.368Z,13.02
2023-04-21T21:33:37.406Z,17.05
2023-04-21T21:38:41.268Z,10.10
2023-04-21T21:43:45.007Z,15.15
2023-04-21T21:48:50.275Z,15.55
2023-04-21T21:53:53.987Z,17.60
2023-04-21T21:58:57.804Z,12.98
2023-04-21T22:04:02.590Z,15.35
2023-04-21T22:09:06.118Z,16.63
2023-04-21T22:14:22.145Z,16.60
2023-04-21T22:19:28.983Z,16.75
2023-04-21T22:24:32.342Z,13.35
2023-04-21T22:29:35.721Z,13.65
2023-04-21T22:34:40.504Z,11.43
2023-04-21T22:39:43.732Z,14.47
2023-04-21T22:44:47.247Z,12.43
2023-04-21T22:49:53.518Z,13.13
2023-04-21T22:54:56.764Z,16.85
2023-04-21T23:00:00.525Z,15.60
2023-04-21T23:05:06.082Z,16.00
2023-04-21T23:15:13.258Z,16.80
2023-04-21T23:20:18.467Z,15.18
2023-04-21T23:25:22.361Z,17.60
2023-04-21T23:30:26.072Z,15.48
2023-04-21T23:35:31.075Z,20.23
2023-04-21T23:40:34.759Z,16.85
2023-04-21T23:45:38.195Z,19.67
2023-04-21T23:50:42.881Z,17.52
2023-04-21T23:55:46.302Z,16.13
